TAP1709 LPPR-LPMA
Flight info
| Callsign | TAP1709 |
|---|---|
| Flight time | 1h 39m |
| Altitude | 35000 |
| Route | ASMOV DCT DIRMA DCT VABEM DCT LIDRO |
| Aircraft | A320/M-SDE3FGHIRWY/LB1 |
Departure
| Time | 2026-05-07 16:00 |
|---|---|
| Airport | Francisco de Sá Carneiro Airport (LPPR) |
Arrival
| Time | 2026-05-07 17:39 |
|---|---|
| Airport | Cristiano Ronaldo International Airport (LPMA) |
| Time | Latitude | Longitude | Altitude | Speed | Heading |
|---|---|---|---|---|---|
| 2026-05-07 15:42 | 41.23733 | -8.67262 | 237 ft | 0 kts | 69° |
| 2026-05-07 15:53 | 41.23728 | -8.67278 | 237 ft | 2 kts | 68° |
| 2026-05-07 15:53 | 41.23722 | -8.67299 | 237 ft | 2 kts | 68° |
| 2026-05-07 15:53 | 41.23715 | -8.67320 | 237 ft | 2 kts | 68° |
| 2026-05-07 15:54 | 41.23710 | -8.67342 | 237 ft | 2 kts | 86° |
| 2026-05-07 15:54 | 41.23709 | -8.67365 | 237 ft | 3 kts | 95° |
| 2026-05-07 15:54 | 41.23714 | -8.67387 | 237 ft | 2 kts | 125° |
| 2026-05-07 15:54 | 41.23714 | -8.67388 | 237 ft | 0 kts | 123° |
| 2026-05-07 15:56 | 41.23702 | -8.67366 | 237 ft | 8 kts | 130° |
| 2026-05-07 15:56 | 41.23662 | -8.67340 | 237 ft | 6 kts | 167° |
| 2026-05-07 15:56 | 41.23609 | -8.67328 | 237 ft | 7 kts | 178° |
| 2026-05-07 15:57 | 41.23569 | -8.67350 | 237 ft | 5 kts | 209° |
| 2026-05-07 15:57 | 41.23537 | -8.67375 | 237 ft | 9 kts | 210° |
| 2026-05-07 15:57 | 41.23462 | -8.67380 | 237 ft | 11 kts | 169° |
| 2026-05-07 15:57 | 41.23395 | -8.67364 | 237 ft | 9 kts | 170° |
| 2026-05-07 15:58 | 41.23344 | -8.67387 | 237 ft | 7 kts | 223° |
| 2026-05-07 15:58 | 41.23326 | -8.67471 | 236 ft | 12 kts | 259° |
| 2026-05-07 15:58 | 41.23308 | -8.67586 | 236 ft | 13 kts | 258° |
| 2026-05-07 15:58 | 41.23302 | -8.67708 | 235 ft | 14 kts | 293° |
| 2026-05-07 15:59 | 41.23448 | -8.67768 | 231 ft | 45 kts | 349° |
| 2026-05-07 15:59 | 41.23985 | -8.67910 | 223 ft | 110 kts | 349° |
| 2026-05-07 15:59 | 41.24913 | -8.68142 | 201 ft | 159 kts | 344° |
| 2026-05-07 15:59 | 41.25998 | -8.68475 | 773 ft | 160 kts | 345° |
| 2026-05-07 16:00 | 41.27101 | -8.68760 | 1530 ft | 162 kts | 345° |
| 2026-05-07 16:00 | 41.28225 | -8.69044 | 2096 ft | 172 kts | 345° |
| 2026-05-07 16:00 | 41.29477 | -8.69371 | 2405 ft | 193 kts | 345° |
| 2026-05-07 16:00 | 41.30881 | -8.69746 | 2672 ft | 220 kts | 346° |
| 2026-05-07 16:01 | 41.32478 | -8.70171 | 2978 ft | 246 kts | 346° |
| 2026-05-07 16:01 | 41.34220 | -8.70630 | 3569 ft | 263 kts | 346° |
| 2026-05-07 16:01 | 41.36053 | -8.71106 | 4306 ft | 273 kts | 347° |
| 2026-05-07 16:01 | 41.37878 | -8.71831 | 5106 ft | 276 kts | 330° |
| 2026-05-07 16:02 | 41.39367 | -8.73414 | 5844 ft | 277 kts | 305° |
| 2026-05-07 16:02 | 41.40223 | -8.75691 | 6562 ft | 277 kts | 279° |
| 2026-05-07 16:02 | 41.40271 | -8.78216 | 7309 ft | 273 kts | 254° |
| 2026-05-07 16:02 | 41.39543 | -8.80526 | 8070 ft | 271 kts | 231° |
| 2026-05-07 16:03 | 41.38204 | -8.82271 | 8799 ft | 271 kts | 216° |
| 2026-05-07 16:03 | 41.36712 | -8.83834 | 9562 ft | 275 kts | 216° |
| 2026-05-07 16:03 | 41.35195 | -8.85420 | 10185 ft | 283 kts | 216° |
| 2026-05-07 16:03 | 41.33584 | -8.87107 | 10385 ft | 306 kts | 217° |
| 2026-05-07 16:04 | 41.31857 | -8.88921 | 10663 ft | 324 kts | 217° |
| 2026-05-07 16:04 | 41.30075 | -8.90802 | 11252 ft | 330 kts | 217° |
| 2026-05-07 16:04 | 41.28268 | -8.92715 | 11905 ft | 334 kts | 217° |
| 2026-05-07 16:04 | 41.26986 | -8.94072 | 12374 ft | 337 kts | 217° |
| 2026-05-07 16:05 | 41.25141 | -8.96019 | 13047 ft | 340 kts | 217° |
| 2026-05-07 16:05 | 41.23280 | -8.97983 | 13700 ft | 344 kts | 217° |
| 2026-05-07 16:05 | 41.21391 | -8.99972 | 14273 ft | 348 kts | 217° |
| 2026-05-07 16:05 | 41.19509 | -9.01950 | 14854 ft | 351 kts | 217° |
| 2026-05-07 16:06 | 41.17591 | -9.03971 | 15438 ft | 354 kts | 218° |
| 2026-05-07 16:06 | 41.15650 | -9.06013 | 16016 ft | 357 kts | 218° |
| 2026-05-07 16:06 | 41.13696 | -9.08064 | 16585 ft | 360 kts | 218° |
| 2026-05-07 16:06 | 41.11717 | -9.10134 | 17148 ft | 364 kts | 218° |
| 2026-05-07 16:07 | 41.09695 | -9.12247 | 17707 ft | 367 kts | 218° |
| 2026-05-07 16:07 | 41.07706 | -9.14329 | 18247 ft | 371 kts | 218° |
| 2026-05-07 16:07 | 41.05675 | -9.16453 | 18719 ft | 374 kts | 218° |
| 2026-05-07 16:07 | 41.03626 | -9.18596 | 19221 ft | 376 kts | 219° |
| 2026-05-07 16:08 | 41.01566 | -9.20748 | 19733 ft | 379 kts | 219° |
| 2026-05-07 16:08 | 40.99491 | -9.22912 | 20232 ft | 381 kts | 219° |
| 2026-05-07 16:08 | 40.97399 | -9.25091 | 20721 ft | 384 kts | 219° |
| 2026-05-07 16:08 | 40.95298 | -9.27278 | 21216 ft | 387 kts | 219° |
| 2026-05-07 16:09 | 40.93169 | -9.29492 | 21706 ft | 390 kts | 219° |
| 2026-05-07 16:09 | 40.91030 | -9.31717 | 22183 ft | 392 kts | 219° |
| 2026-05-07 16:09 | 40.88878 | -9.33951 | 22657 ft | 395 kts | 219° |
| 2026-05-07 16:09 | 40.86709 | -9.36203 | 23120 ft | 398 kts | 219° |
| 2026-05-07 16:10 | 40.84529 | -9.38464 | 23549 ft | 400 kts | 219° |
| 2026-05-07 16:10 | 40.82330 | -9.40735 | 23941 ft | 402 kts | 219° |
| 2026-05-07 16:10 | 40.80126 | -9.43011 | 24341 ft | 403 kts | 219° |
| 2026-05-07 16:10 | 40.77916 | -9.45293 | 24741 ft | 404 kts | 219° |
| 2026-05-07 16:11 | 40.75704 | -9.47580 | 25133 ft | 404 kts | 219° |
| 2026-05-07 16:11 | 40.73487 | -9.49869 | 25513 ft | 405 kts | 219° |
| 2026-05-07 16:11 | 40.71268 | -9.52159 | 25885 ft | 406 kts | 219° |
| 2026-05-07 16:11 | 40.69039 | -9.54459 | 26251 ft | 407 kts | 219° |
| 2026-05-07 16:12 | 40.66806 | -9.56759 | 26612 ft | 408 kts | 219° |
| 2026-05-07 16:12 | 40.64567 | -9.59061 | 26963 ft | 409 kts | 219° |
| 2026-05-07 16:12 | 40.62287 | -9.61401 | 27315 ft | 410 kts | 220° |
| 2026-05-07 16:12 | 40.60034 | -9.63712 | 27651 ft | 412 kts | 220° |
| 2026-05-07 16:13 | 40.57773 | -9.66029 | 27980 ft | 413 kts | 220° |
| 2026-05-07 16:13 | 40.55502 | -9.68357 | 28303 ft | 414 kts | 220° |
| 2026-05-07 16:13 | 40.53228 | -9.70688 | 28620 ft | 415 kts | 220° |
| 2026-05-07 16:13 | 40.50947 | -9.73025 | 28923 ft | 417 kts | 220° |
| 2026-05-07 16:14 | 40.48660 | -9.75362 | 29217 ft | 418 kts | 220° |
| 2026-05-07 16:14 | 40.46364 | -9.77705 | 29499 ft | 419 kts | 220° |
| 2026-05-07 16:14 | 40.44057 | -9.80058 | 29777 ft | 420 kts | 220° |
| 2026-05-07 16:14 | 40.41744 | -9.82418 | 30027 ft | 422 kts | 220° |
| 2026-05-07 16:15 | 40.39426 | -9.84782 | 30244 ft | 423 kts | 220° |
| 2026-05-07 16:15 | 40.37100 | -9.87149 | 30461 ft | 424 kts | 220° |
| 2026-05-07 16:15 | 40.34768 | -9.89520 | 30699 ft | 424 kts | 220° |
| 2026-05-07 16:15 | 40.32441 | -9.91885 | 31004 ft | 422 kts | 220° |
| 2026-05-07 16:16 | 40.30126 | -9.94240 | 31314 ft | 421 kts | 220° |
| 2026-05-07 16:16 | 40.27820 | -9.96583 | 31608 ft | 419 kts | 220° |
| 2026-05-07 16:16 | 40.25517 | -9.98919 | 31915 ft | 418 kts | 220° |
| 2026-05-07 16:16 | 40.23221 | -10.01243 | 32220 ft | 416 kts | 220° |
| 2026-05-07 16:17 | 40.20933 | -10.03553 | 32539 ft | 415 kts | 220° |
| 2026-05-07 16:17 | 40.18649 | -10.05860 | 32819 ft | 414 kts | 220° |
| 2026-05-07 16:17 | 40.16377 | -10.08156 | 33113 ft | 413 kts | 221° |
| 2026-05-07 16:17 | 40.14110 | -10.10446 | 33401 ft | 412 kts | 221° |
| 2026-05-07 16:18 | 40.11846 | -10.12729 | 33692 ft | 410 kts | 221° |
| 2026-05-07 16:18 | 40.09586 | -10.15006 | 33973 ft | 409 kts | 221° |
| 2026-05-07 16:18 | 40.07337 | -10.17266 | 34217 ft | 408 kts | 221° |
| 2026-05-07 16:18 | 40.05084 | -10.19529 | 34437 ft | 408 kts | 221° |
| 2026-05-07 16:19 | 40.02836 | -10.21784 | 34642 ft | 408 kts | 221° |
| 2026-05-07 16:19 | 40.00586 | -10.24037 | 34841 ft | 408 kts | 221° |
| 2026-05-07 16:19 | 39.98342 | -10.26283 | 34921 ft | 406 kts | 221° |
| 2026-05-07 16:20 | 39.93881 | -10.30750 | 34932 ft | 403 kts | 221° |
| 2026-05-07 16:20 | 39.89443 | -10.35199 | 34934 ft | 402 kts | 221° |
| 2026-05-07 16:21 | 39.85003 | -10.39638 | 34938 ft | 402 kts | 220° |
| 2026-05-07 16:21 | 39.80560 | -10.44060 | 34939 ft | 402 kts | 220° |
| 2026-05-07 16:22 | 39.76115 | -10.48474 | 34929 ft | 402 kts | 220° |
| 2026-05-07 16:22 | 39.71666 | -10.52885 | 34935 ft | 402 kts | 220° |
| 2026-05-07 16:23 | 39.67226 | -10.57290 | 34935 ft | 402 kts | 220° |
| 2026-05-07 16:23 | 39.62783 | -10.61689 | 34932 ft | 402 kts | 220° |
| 2026-05-07 16:24 | 39.58336 | -10.66086 | 34929 ft | 402 kts | 221° |
| 2026-05-07 16:24 | 39.56356 | -10.68590 | 34932 ft | 396 kts | 235° |
| 2026-05-07 16:24 | 39.54679 | -10.71416 | 34929 ft | 397 kts | 226° |
| 2026-05-07 16:25 | 39.50287 | -10.75825 | 34930 ft | 401 kts | 219° |
| 2026-05-07 16:25 | 39.45754 | -10.80036 | 34928 ft | 401 kts | 219° |
| 2026-05-07 16:26 | 39.41267 | -10.84334 | 34929 ft | 401 kts | 220° |
| 2026-05-07 16:26 | 39.36827 | -10.88692 | 34932 ft | 401 kts | 220° |
| 2026-05-07 16:27 | 39.32384 | -10.93055 | 34937 ft | 401 kts | 220° |
| 2026-05-07 16:27 | 39.27932 | -10.97401 | 34937 ft | 401 kts | 220° |
| 2026-05-07 16:28 | 39.23467 | -11.01732 | 34934 ft | 402 kts | 220° |
| 2026-05-07 16:28 | 39.18974 | -11.06089 | 34936 ft | 402 kts | 220° |
| 2026-05-07 16:29 | 39.14533 | -11.10391 | 34933 ft | 402 kts | 220° |
| 2026-05-07 16:29 | 39.10060 | -11.14725 | 34936 ft | 402 kts | 220° |
| 2026-05-07 16:30 | 39.05582 | -11.19055 | 34924 ft | 403 kts | 220° |
| 2026-05-07 16:30 | 39.01098 | -11.23384 | 34933 ft | 403 kts | 220° |
| 2026-05-07 16:31 | 38.96605 | -11.27707 | 34933 ft | 404 kts | 220° |
| 2026-05-07 16:31 | 38.92107 | -11.32030 | 34934 ft | 404 kts | 220° |
| 2026-05-07 16:32 | 38.87602 | -11.36356 | 34930 ft | 404 kts | 220° |
| 2026-05-07 16:32 | 38.83089 | -11.40676 | 34932 ft | 405 kts | 220° |
| 2026-05-07 16:33 | 38.78577 | -11.45005 | 34932 ft | 405 kts | 220° |
| 2026-05-07 16:33 | 38.74060 | -11.49327 | 34933 ft | 406 kts | 220° |
| 2026-05-07 16:34 | 38.69535 | -11.53645 | 34932 ft | 406 kts | 220° |
| 2026-05-07 16:34 | 38.65000 | -11.57960 | 34937 ft | 406 kts | 220° |
| 2026-05-07 16:35 | 38.60464 | -11.62268 | 34933 ft | 406 kts | 220° |
| 2026-05-07 16:35 | 38.55922 | -11.66582 | 34936 ft | 407 kts | 220° |
| 2026-05-07 16:36 | 38.51371 | -11.70885 | 34938 ft | 407 kts | 219° |
| 2026-05-07 16:36 | 38.46817 | -11.75190 | 34937 ft | 407 kts | 220° |
| 2026-05-07 16:37 | 38.42267 | -11.79495 | 34937 ft | 408 kts | 220° |
| 2026-05-07 16:37 | 38.37649 | -11.83857 | 34951 ft | 418 kts | 220° |
| 2026-05-07 16:38 | 38.32927 | -11.88311 | 34952 ft | 426 kts | 219° |
| 2026-05-07 16:38 | 38.28130 | -11.92824 | 34952 ft | 430 kts | 219° |
| 2026-05-07 16:39 | 38.23308 | -11.97344 | 34953 ft | 431 kts | 219° |
| 2026-05-07 16:39 | 38.18478 | -12.01869 | 34949 ft | 431 kts | 219° |
| 2026-05-07 16:40 | 38.13611 | -12.06422 | 34945 ft | 432 kts | 219° |
| 2026-05-07 16:40 | 38.08804 | -12.10902 | 34944 ft | 432 kts | 219° |
| 2026-05-07 16:41 | 38.03960 | -12.15417 | 34941 ft | 432 kts | 219° |
| 2026-05-07 16:41 | 37.99155 | -12.19892 | 34939 ft | 432 kts | 219° |
| 2026-05-07 16:42 | 37.94310 | -12.24402 | 34936 ft | 432 kts | 219° |
| 2026-05-07 16:42 | 37.89452 | -12.28908 | 34931 ft | 433 kts | 219° |
| 2026-05-07 16:43 | 37.85375 | -12.32681 | 34930 ft | 434 kts | 219° |
| 2026-05-07 16:43 | 37.80503 | -12.37186 | 34932 ft | 434 kts | 219° |
| 2026-05-07 16:44 | 37.75618 | -12.41685 | 34932 ft | 435 kts | 219° |
| 2026-05-07 16:44 | 37.70722 | -12.46191 | 34936 ft | 436 kts | 219° |
| 2026-05-07 16:45 | 37.65819 | -12.50702 | 34934 ft | 436 kts | 219° |
| 2026-05-07 16:45 | 37.60909 | -12.55218 | 34936 ft | 437 kts | 220° |
| 2026-05-07 16:46 | 37.55986 | -12.59737 | 34938 ft | 438 kts | 219° |
| 2026-05-07 16:46 | 37.51057 | -12.64251 | 34939 ft | 439 kts | 219° |
| 2026-05-07 16:47 | 37.46113 | -12.68766 | 34940 ft | 439 kts | 219° |
| 2026-05-07 16:47 | 37.41162 | -12.73282 | 34942 ft | 440 kts | 220° |
| 2026-05-07 16:48 | 37.36206 | -12.77799 | 34942 ft | 440 kts | 219° |
| 2026-05-07 16:48 | 37.31234 | -12.82311 | 34943 ft | 441 kts | 219° |
| 2026-05-07 16:49 | 37.26261 | -12.86829 | 34940 ft | 442 kts | 220° |
| 2026-05-07 16:49 | 37.21285 | -12.91348 | 34940 ft | 442 kts | 220° |
| 2026-05-07 16:50 | 37.16287 | -12.95867 | 34944 ft | 443 kts | 220° |
| 2026-05-07 16:50 | 37.11280 | -13.00378 | 34941 ft | 444 kts | 220° |
| 2026-05-07 16:51 | 37.06267 | -13.04892 | 34938 ft | 444 kts | 220° |
| 2026-05-07 16:51 | 37.01242 | -13.09423 | 34940 ft | 445 kts | 220° |
| 2026-05-07 16:52 | 36.96204 | -13.13952 | 34942 ft | 446 kts | 220° |
| 2026-05-07 16:52 | 36.91161 | -13.18482 | 34939 ft | 447 kts | 220° |
| 2026-05-07 16:53 | 36.86095 | -13.23014 | 34942 ft | 448 kts | 220° |
| 2026-05-07 16:53 | 36.81024 | -13.27547 | 34938 ft | 449 kts | 220° |
| 2026-05-07 16:54 | 36.75945 | -13.32094 | 34939 ft | 450 kts | 220° |
| 2026-05-07 16:54 | 36.70850 | -13.36632 | 34936 ft | 451 kts | 220° |
| 2026-05-07 16:55 | 36.65734 | -13.41173 | 34939 ft | 452 kts | 220° |
| 2026-05-07 16:55 | 36.60609 | -13.45722 | 34937 ft | 453 kts | 220° |
| 2026-05-07 16:56 | 36.55478 | -13.50286 | 34938 ft | 454 kts | 220° |
| 2026-05-07 16:56 | 36.47750 | -13.57136 | 34949 ft | 456 kts | 220° |
| 2026-05-07 16:57 | 36.42572 | -13.61703 | 34940 ft | 457 kts | 220° |
| 2026-05-07 16:57 | 36.37384 | -13.66279 | 34946 ft | 458 kts | 220° |
| 2026-05-07 16:58 | 36.32177 | -13.70858 | 34945 ft | 459 kts | 220° |
| 2026-05-07 16:58 | 36.26956 | -13.75433 | 34935 ft | 460 kts | 220° |
| 2026-05-07 16:59 | 36.21721 | -13.80025 | 34940 ft | 461 kts | 221° |
| 2026-05-07 16:59 | 36.16475 | -13.84624 | 34939 ft | 463 kts | 221° |
| 2026-05-07 17:00 | 36.11217 | -13.89219 | 34939 ft | 463 kts | 221° |
| 2026-05-07 17:00 | 36.05963 | -13.93808 | 34926 ft | 462 kts | 221° |
| 2026-05-07 17:01 | 36.00701 | -13.98402 | 34934 ft | 464 kts | 221° |
| 2026-05-07 17:01 | 35.95420 | -14.03001 | 34944 ft | 465 kts | 221° |
| 2026-05-07 17:02 | 35.90131 | -14.07596 | 34943 ft | 465 kts | 221° |
| 2026-05-07 17:02 | 35.84795 | -14.12210 | 34954 ft | 465 kts | 220° |
| 2026-05-07 17:03 | 35.79534 | -14.16760 | 34955 ft | 465 kts | 221° |
| 2026-05-07 17:03 | 35.74241 | -14.21345 | 34956 ft | 465 kts | 220° |
| 2026-05-07 17:04 | 35.68945 | -14.25918 | 34953 ft | 465 kts | 220° |
| 2026-05-07 17:04 | 35.63645 | -14.30470 | 34958 ft | 465 kts | 220° |
| 2026-05-07 17:05 | 35.58352 | -14.35022 | 34952 ft | 464 kts | 220° |
| 2026-05-07 17:05 | 35.53058 | -14.39567 | 34958 ft | 464 kts | 220° |
| 2026-05-07 17:06 | 35.47770 | -14.44098 | 34954 ft | 464 kts | 220° |
| 2026-05-07 17:06 | 35.42476 | -14.48628 | 34952 ft | 463 kts | 220° |
| 2026-05-07 17:07 | 35.37190 | -14.53148 | 34950 ft | 463 kts | 220° |
| 2026-05-07 17:07 | 35.31905 | -14.57658 | 34959 ft | 463 kts | 220° |
| 2026-05-07 17:08 | 35.26581 | -14.62192 | 34955 ft | 463 kts | 220° |
| 2026-05-07 17:08 | 35.21287 | -14.66685 | 34961 ft | 463 kts | 220° |
| 2026-05-07 17:09 | 35.15995 | -14.71175 | 34955 ft | 463 kts | 220° |
| 2026-05-07 17:09 | 35.10700 | -14.75662 | 34959 ft | 463 kts | 220° |
| 2026-05-07 17:10 | 35.05409 | -14.80150 | 34959 ft | 463 kts | 220° |
| 2026-05-07 17:10 | 35.00114 | -14.84620 | 34962 ft | 463 kts | 220° |
| 2026-05-07 17:11 | 34.94802 | -14.89093 | 34965 ft | 464 kts | 220° |
| 2026-05-07 17:11 | 34.89494 | -14.93560 | 34966 ft | 464 kts | 220° |
| 2026-05-07 17:12 | 34.84186 | -14.98024 | 34971 ft | 464 kts | 219° |
| 2026-05-07 17:12 | 34.78867 | -15.02479 | 34977 ft | 464 kts | 219° |
| 2026-05-07 17:13 | 34.73553 | -15.06935 | 34973 ft | 464 kts | 219° |
| 2026-05-07 17:13 | 34.68242 | -15.11386 | 34979 ft | 464 kts | 219° |
| 2026-05-07 17:14 | 34.62925 | -15.15832 | 34983 ft | 464 kts | 219° |
| 2026-05-07 17:14 | 34.57607 | -15.20261 | 34987 ft | 464 kts | 219° |
| 2026-05-07 17:15 | 34.52286 | -15.24678 | 34996 ft | 463 kts | 219° |
| 2026-05-07 17:15 | 34.46971 | -15.29104 | 34993 ft | 463 kts | 219° |
| 2026-05-07 17:16 | 34.41662 | -15.33524 | 34994 ft | 463 kts | 219° |
| 2026-05-07 17:16 | 34.36313 | -15.37962 | 34991 ft | 463 kts | 219° |
| 2026-05-07 17:17 | 34.31003 | -15.42353 | 34836 ft | 462 kts | 219° |
| 2026-05-07 17:17 | 34.28368 | -15.44523 | 34531 ft | 452 kts | 219° |
| 2026-05-07 17:17 | 34.25810 | -15.46626 | 34281 ft | 441 kts | 219° |
| 2026-05-07 17:18 | 34.23285 | -15.48702 | 34052 ft | 435 kts | 219° |
| 2026-05-07 17:18 | 34.20792 | -15.50756 | 33805 ft | 432 kts | 219° |
| 2026-05-07 17:18 | 34.19152 | -15.52107 | 33544 ft | 429 kts | 219° |
| 2026-05-07 17:18 | 34.16696 | -15.54127 | 33008 ft | 426 kts | 219° |
| 2026-05-07 17:19 | 34.14257 | -15.56133 | 32494 ft | 422 kts | 219° |
| 2026-05-07 17:19 | 34.11841 | -15.58121 | 31980 ft | 419 kts | 219° |
| 2026-05-07 17:19 | 34.09408 | -15.60128 | 31471 ft | 417 kts | 219° |
| 2026-05-07 17:19 | 34.07053 | -15.62069 | 30976 ft | 415 kts | 219° |
| 2026-05-07 17:20 | 34.04678 | -15.64025 | 30477 ft | 413 kts | 220° |
| 2026-05-07 17:20 | 34.02309 | -15.65969 | 29967 ft | 411 kts | 220° |
| 2026-05-07 17:20 | 33.99951 | -15.67902 | 29443 ft | 408 kts | 220° |
| 2026-05-07 17:20 | 33.97588 | -15.69833 | 28957 ft | 404 kts | 220° |
| 2026-05-07 17:21 | 33.95265 | -15.71729 | 28496 ft | 401 kts | 220° |
| 2026-05-07 17:21 | 33.92968 | -15.73603 | 28028 ft | 398 kts | 220° |
| 2026-05-07 17:21 | 33.90686 | -15.75466 | 27599 ft | 395 kts | 220° |
| 2026-05-07 17:21 | 33.88424 | -15.77314 | 27149 ft | 392 kts | 220° |
| 2026-05-07 17:22 | 33.86176 | -15.79150 | 26717 ft | 389 kts | 220° |
| 2026-05-07 17:22 | 33.83980 | -15.80944 | 26298 ft | 386 kts | 220° |
| 2026-05-07 17:22 | 33.81706 | -15.82800 | 25854 ft | 383 kts | 219° |
| 2026-05-07 17:22 | 33.79505 | -15.84591 | 25420 ft | 381 kts | 219° |
| 2026-05-07 17:23 | 33.77315 | -15.86373 | 24973 ft | 379 kts | 219° |
| 2026-05-07 17:23 | 33.75135 | -15.88148 | 24518 ft | 378 kts | 219° |
| 2026-05-07 17:23 | 33.72962 | -15.89914 | 24067 ft | 377 kts | 219° |
| 2026-05-07 17:23 | 33.70790 | -15.91682 | 23600 ft | 376 kts | 219° |
| 2026-05-07 17:24 | 33.68626 | -15.93443 | 23069 ft | 375 kts | 219° |
| 2026-05-07 17:24 | 33.66470 | -15.95195 | 22562 ft | 374 kts | 219° |
| 2026-05-07 17:24 | 33.64295 | -15.96916 | 22072 ft | 373 kts | 218° |
| 2026-05-07 17:24 | 33.62140 | -15.98571 | 21591 ft | 372 kts | 217° |
| 2026-05-07 17:25 | 33.59953 | -16.00227 | 21100 ft | 371 kts | 217° |
| 2026-05-07 17:25 | 33.57741 | -16.01901 | 20608 ft | 370 kts | 217° |
| 2026-05-07 17:25 | 33.55595 | -16.03532 | 20124 ft | 370 kts | 217° |
| 2026-05-07 17:25 | 33.53402 | -16.05206 | 19638 ft | 369 kts | 217° |
| 2026-05-07 17:26 | 33.51271 | -16.06835 | 19169 ft | 368 kts | 217° |
| 2026-05-07 17:26 | 33.49114 | -16.08485 | 18691 ft | 367 kts | 217° |
| 2026-05-07 17:26 | 33.46959 | -16.10129 | 18284 ft | 365 kts | 217° |
| 2026-05-07 17:26 | 33.44798 | -16.11776 | 17742 ft | 364 kts | 217° |
| 2026-05-07 17:27 | 33.42709 | -16.13370 | 17349 ft | 359 kts | 217° |
| 2026-05-07 17:27 | 33.40604 | -16.14978 | 16892 ft | 359 kts | 217° |
| 2026-05-07 17:27 | 33.38471 | -16.16612 | 16302 ft | 365 kts | 217° |
| 2026-05-07 17:27 | 33.36329 | -16.18250 | 15840 ft | 365 kts | 217° |
| 2026-05-07 17:28 | 33.34189 | -16.19880 | 15383 ft | 364 kts | 217° |
| 2026-05-07 17:28 | 33.32032 | -16.21521 | 14900 ft | 362 kts | 217° |
| 2026-05-07 17:28 | 33.29914 | -16.23129 | 14440 ft | 360 kts | 217° |
| 2026-05-07 17:28 | 33.27804 | -16.24728 | 13979 ft | 358 kts | 216° |
| 2026-05-07 17:29 | 33.25705 | -16.26320 | 13484 ft | 356 kts | 216° |
| 2026-05-07 17:29 | 33.23621 | -16.27903 | 13021 ft | 353 kts | 216° |
| 2026-05-07 17:29 | 33.21558 | -16.29469 | 12554 ft | 350 kts | 216° |
| 2026-05-07 17:29 | 33.19512 | -16.31023 | 12095 ft | 347 kts | 216° |
| 2026-05-07 17:30 | 33.17484 | -16.32565 | 11630 ft | 345 kts | 216° |
| 2026-05-07 17:30 | 33.15515 | -16.34056 | 11442 ft | 322 kts | 216° |
| 2026-05-07 17:30 | 33.13681 | -16.35437 | 11182 ft | 304 kts | 216° |
| 2026-05-07 17:30 | 33.11911 | -16.36773 | 10797 ft | 300 kts | 216° |
| 2026-05-07 17:31 | 33.10162 | -16.38098 | 10484 ft | 297 kts | 216° |
| 2026-05-07 17:31 | 33.08307 | -16.39504 | 10115 ft | 295 kts | 216° |
| 2026-05-07 17:31 | 33.06604 | -16.40796 | 9765 ft | 292 kts | 216° |
| 2026-05-07 17:31 | 33.04884 | -16.42103 | 9098 ft | 288 kts | 216° |
| 2026-05-07 17:32 | 33.03222 | -16.43364 | 8431 ft | 286 kts | 216° |
| 2026-05-07 17:32 | 33.01553 | -16.44626 | 7802 ft | 282 kts | 215° |
| 2026-05-07 17:32 | 32.99919 | -16.45856 | 7312 ft | 274 kts | 215° |
| 2026-05-07 17:32 | 32.98844 | -16.46662 | 7014 ft | 267 kts | 215° |
| 2026-05-07 17:33 | 32.96811 | -16.48190 | 6464 ft | 255 kts | 215° |
| 2026-05-07 17:33 | 32.95335 | -16.49301 | 6072 ft | 250 kts | 215° |
| 2026-05-07 17:33 | 32.93868 | -16.50408 | 5664 ft | 250 kts | 215° |
| 2026-05-07 17:33 | 32.92423 | -16.51627 | 5255 ft | 258 kts | 224° |
| 2026-05-07 17:34 | 32.91157 | -16.52989 | 4853 ft | 263 kts | 224° |
| 2026-05-07 17:34 | 32.89797 | -16.54444 | 4382 ft | 263 kts | 224° |
| 2026-05-07 17:34 | 32.88440 | -16.55887 | 4156 ft | 260 kts | 224° |
| 2026-05-07 17:34 | 32.87085 | -16.57334 | 4093 ft | 262 kts | 224° |
| 2026-05-07 17:35 | 32.85727 | -16.58787 | 3997 ft | 262 kts | 224° |
| 2026-05-07 17:35 | 32.84365 | -16.60242 | 3715 ft | 264 kts | 224° |
| 2026-05-07 17:35 | 32.83046 | -16.61646 | 3452 ft | 246 kts | 224° |
| 2026-05-07 17:35 | 32.81792 | -16.62979 | 3027 ft | 238 kts | 224° |
| 2026-05-07 17:36 | 32.80562 | -16.64286 | 3012 ft | 238 kts | 224° |
| 2026-05-07 17:36 | 32.79329 | -16.65602 | 2602 ft | 238 kts | 224° |
| 2026-05-07 17:36 | 32.78091 | -16.66925 | 2177 ft | 235 kts | 224° |
| 2026-05-07 17:36 | 32.76878 | -16.68226 | 2009 ft | 235 kts | 226° |
| 2026-05-07 17:37 | 32.75789 | -16.69660 | 1764 ft | 233 kts | 234° |
| 2026-05-07 17:37 | 32.74863 | -16.71160 | 1523 ft | 212 kts | 236° |
| 2026-05-07 17:37 | 32.74011 | -16.72493 | 1185 ft | 194 kts | 229° |
| 2026-05-07 17:37 | 32.73120 | -16.73550 | 928 ft | 169 kts | 224° |
| 2026-05-07 17:38 | 32.72335 | -16.74465 | 808 ft | 147 kts | 225° |
| 2026-05-07 17:38 | 32.71628 | -16.75297 | 550 ft | 138 kts | 225° |
| 2026-05-07 17:38 | 32.70964 | -16.76079 | 349 ft | 132 kts | 224° |
| 2026-05-07 17:38 | 32.70320 | -16.76829 | 204 ft | 124 kts | 224° |
| 2026-05-07 17:39 | 32.69801 | -16.77429 | 175 ft | 67 kts | 224° |
| 2026-05-07 17:39 | 32.69580 | -16.77690 | 171 ft | 41 kts | 225° |
| 2026-05-07 17:39 | 32.69407 | -16.77890 | 164 ft | 25 kts | 224° |
| 2026-05-07 17:39 | 32.69312 | -16.77955 | 162 ft | 12 kts | 158° |
| 2026-05-07 17:40 | 32.69293 | -16.77926 | 163 ft | 3 kts | 109° |
| 2026-05-07 17:40 | 32.69301 | -16.77846 | 168 ft | 8 kts | 58° |
| 2026-05-07 17:40 | 32.69335 | -16.77799 | 168 ft | 7 kts | 48° |
| 2026-05-07 17:40 | 32.69365 | -16.77761 | 169 ft | 6 kts | 46° |
| 2026-05-07 17:41 | 32.69358 | -16.77717 | 168 ft | 3 kts | 143° |
| 2026-05-07 17:41 | 32.69344 | -16.77704 | 169 ft | 6 kts | 139° |
| 2026-05-07 17:41 | 32.69340 | -16.77700 | 171 ft | 0 kts | 138° |